METAR Data
IDs: Format: Raw Decoded Include TAF

Data at: 0814 UTC 18 Nov 2018

PAWN 180756Z AUTO 03007KT 9SM -SN SCT021 OVC050 M02/M04 A2960 RMK AO2 SLP036 P0000 T10221044 410221061 FZRANO
PAWN 180743Z AUTO 02007KT 9SM -SN BKN021 BKN060 OVC070 M02/M04 A2960 RMK AO2 P0000 FZRANO
PAWN 180656Z AUTO 01008KT 9SM -SN OVC049 M02/M04 A2960 RMK AO2 SLP037 P0000 T10221044 FZRANO
PAWN 180556Z AUTO 02007KT 9SM -SN OVC049 M02/M04 A2960 RMK AO2 SLP039 P0001 60002 T10221044 11022 21033 56003 FZRANO
PAWN 180456Z AUTO 02007KT 9SM -SN SCT034 OVC049 M03/M04 A2960 RMK AO2 SLP039 P0000 T10281039 FZRANO
PAWN 180256Z AUTO 04007KT 8SM -SN OVC030 M03/M04 A2961 RMK AO2 SLP042 P0000 60001 T10281039 56007 FZRANO
PAWN 180207Z AUTO 04008KT 3SM -SN BR FEW011 BKN024 OVC030 M03/M04 A2962 RMK AO2 P0000 FZRANO
PAWN 180201Z AUTO 04009KT 1 1/2SM -SN BR FEW011 OVC028 M03/M04 A2962 RMK AO2 P0000 FZRANO
PAWN 180143Z AUTO 04008KT 1SM -SN BR FEW013 BKN030 OVC035 M03/M04 A2962 RMK AO2 P0000 FZRANO
PAWN 180130Z AUTO 03008KT 2SM -SN BR FEW013 SCT023 OVC033 M03/M04 A2962 RMK AO2 P0000 FZRANO
PAWN 180112Z AUTO 03006KT 2SM -SN BR SCT013 OVC023 M03/M04 A2962 RMK AO2 P0000 FZRANO
PAWN 172356Z AUTO 02007KT 2 1/2SM -SN BR FEW011 BKN028 OVC034 M03/M04 A2963 RMK AO2 VIS 2V3 SLP050 P0000 60001 T10331044 11033 21044 58008 FZRANO
PAWN 172256Z AUTO 02008KT 1 1/2SM -SN BR SCT009 BKN013 OVC025 M03/M04 A2965 RMK AO2 SLP053 P0000 T10331044 FZRANO
PAWN 172245Z AUTO 02006KT 2SM -SN BR SCT009 OVC013 M03/M04 A2965 RMK AO2 P0000 FZRANO
PAWN 172240Z AUTO 02006KT 1 3/4SM -SN BR OVC013 M03/M04 A2965 RMK AO2 P0000 FZRANO
PAWN 172235Z AUTO 04004KT 1 1/2SM -SN BR OVC016 M03/M04 A2965 RMK AO2 P0000 FZRANO
PAWN 172156Z AUTO 02006KT 1SM -SN BR OVC018 M03/M04 A2966 RMK AO2 SLP057 P0001 T10331044 FZRANO
PAWN 172116Z AUTO 04008KT 1 1/2SM -SN BR BKN022 OVC031 M03/M05 A2966 RMK AO2 P0001 FZRANO
PAWN 172056Z AUTO 03007KT 2SM -SN BR OVC029 M03/M05 A2966 RMK AO2 SLP058 P0000 60000 T10331050 56005 FZRANO
PAWN 172045Z AUTO 03007KT 2SM -SN BR SCT022 OVC029 M03/M05 A2966 RMK AO2 VIS 1 3/4V2 1/2 P0000 FZRANO
PAWN 172037Z AUTO 03008KT 3SM -SN BR BKN020 OVC029 M03/M05 A2966 RMK AO2 P0000 FZRANO
PAWN 172014Z AUTO 03009KT 2 1/2SM -SN BR BKN020 OVC035 M04/M05 A2966 RMK AO2 P0000 FZRANO
PAWN 171849Z AUTO 03007KT 9SM -SN OVC031 M04/M06 A2966 RMK AO2 P0000 FZRANO
PAWN 171756Z AUTO 03008KT 4SM -SN BR FEW019 OVC027 M04/M06 A2967 RMK AO2 SLP063 P0000 60000 T10441056 11044 21056 58004 FZRANO
PAWN 171656Z AUTO 04007KT 3SM -SN BR BKN022 OVC029 M04/M06 A2967 RMK AO2 SLP064 P0000 T10441061 FZRANO
PAWN 171631Z AUTO 03007KT 3SM -SN BR BKN020 OVC031 M05/M06 A2967 RMK AO2 P0000 FZRANO
PAWN 171613Z AUTO 03005KT 2SM -SN BR OVC031 M05/M06 A2968 RMK AO2 P0000 FZRANO
PAWN 171516Z AUTO 02006KT 2 1/2SM -SN BR BKN024 OVC030 M06/M07 A2969 RMK AO2 VIS 2V3 P0000 FZRANO
PAWN 171456Z AUTO 01004KT 3SM -SN BR BKN028 OVC037 M06/M07 A2969 RMK AO2 SLP070 P0000 60000 T10561067 56010 FZRANO
PAWN 171443Z AUTO 01004KT 3SM -SN BR SCT026 OVC035 M06/M07 A2970 RMK AO2 P0000 FZRANO
PAWN 171417Z AUTO 02004KT 2 1/2SM -SN BR OVC028 M06/M07 A2970 RMK AO2 P0000 FZRANO
PAWN 171356Z AUTO 36004KT 5SM -SN BR BKN028 OVC036 M06/M07 A2971 RMK AO2 SLP074 P0000 T10561072 FZRANO
PAWN 171353Z AUTO 01005KT 6SM -SN BR BKN028 OVC041 M06/M07 A2971 RMK AO2 P0000 FZRANO
PAWN 171256Z AUTO 09003KT 9SM -SN FEW030 BKN060 OVC120 M06/M08 A2972 RMK AO2 SLP080 P0000 T10561078 FZRANO
PAWN 171156Z AUTO 02005KT 9SM -SN OVC028 M05/M07 A2973 RMK AO2 SNB15 SLP083 P0000 60000 T10501072 11050 21067 58015 FZRANO
PAWN 171147Z AUTO 02005KT 8SM -SN BKN028 OVC037 M05/M07 A2974 RMK AO2 SNB15 P0000 FZRANO
PAWN 170956Z AUTO 03003KT 10SM BKN033 OVC048 M06/M09 A2976 RMK AO2 SLP093 T10561089 FZRANO
PAWN 170856Z AUTO 00000KT 10SM BKN036 OVC045 M06/M10 A2978 RMK AO2 SNB04E18 SLP098 P0000 60000 T10611100 58009 FZRANO
PAWN 170756Z AUTO 00000KT 10SM BKN038 OVC046 M06/M10 A2979 RMK AO2 SLP101 T10561100 410561189 FZRANO
PAWN 170556Z AUTO 05005KT 10SM BKN060 OVC085 M07/M11 A2980 RMK AO2 SLP107 T10671111 11067 21078 56017 FZRANO
PAWN 170456Z AUTO 02004KT 10SM OVC090 M07/M12 A2981 RMK AO2 SLP111 T10671117 FZRANO
PAWN 170356Z AUTO 35003KT 10SM OVC100 M07/M12 A2984 RMK AO2 SLP118 T10721117 FZRANO
PAWN 170256Z AUTO 36005KT 10SM BKN095 OVC120 M08/M12 A2985 RMK AO2 SLP124 T10781122 58016 FZRANO
PAWN 170156Z AUTO 00000KT 10SM SCT100 M08/M13 A2987 RMK AO2 SLP131 T10781128 FZRANO
PAWN 170056Z AUTO 01004KT 10SM OVC100 M08/M13 A2989 RMK AO2 SLP136 T10781128 FZRANO
PAWN 162256Z AUTO 03005KT 10SM OVC090 M08/M14 A2992 RMK AO2 SLP148 T10831139 FZRANO
PAWN 162056Z AUTO 02005KT 10SM CLR M09/M14 A2997 RMK AO2 SLP163 T10891144 56011 FZRANO